sensor_id;sensor_type;location;lat;lon;timestamp;temperature;humidity
30973;DHT22;25423;45.624;13.790;2023-02-28T00:00:07;4.50;99.90
30973;DHT22;25423;45.624;13.790;2023-02-28T00:02:36;4.50;99.90
30973;DHT22;25423;45.624;13.790;2023-02-28T00:05:01;4.50;99.90
30973;DHT22;25423;45.624;13.790;2023-02-28T00:07:29;4.50;99.90
30973;DHT22;25423;45.624;13.790;2023-02-28T00:09:54;4.40;99.90
30973;DHT22;25423;45.624;13.790;2023-02-28T00:12:20;4.40;99.90
30973;DHT22;25423;45.624;13.790;2023-02-28T00:14:46;4.40;99.90
30973;DHT22;25423;45.624;13.790;2023-02-28T00:17:11;4.40;99.90
30973;DHT22;25423;45.624;13.790;2023-02-28T00:19:37;4.40;99.90
30973;DHT22;25423;45.624;13.790;2023-02-28T00:22:03;4.40;99.90
30973;DHT22;25423;45.624;13.790;2023-02-28T00:24:29;4.40;99.90
30973;DHT22;25423;45.624;13.790;2023-02-28T00:26:54;4.40;99.90
30973;DHT22;25423;45.624;13.790;2023-02-28T00:29:20;4.40;99.90
30973;DHT22;25423;45.624;13.790;2023-02-28T00:31:45;4.40;99.90
30973;DHT22;25423;45.624;13.790;2023-02-28T00:34:11;4.40;99.90
30973;DHT22;25423;45.624;13.790;2023-02-28T00:36:37;4.40;99.90
30973;DHT22;25423;45.624;13.790;2023-02-28T00:39:03;4.40;99.90
30973;DHT22;25423;45.624;13.790;2023-02-28T00:41:29;4.40;99.90
30973;DHT22;25423;45.624;13.790;2023-02-28T00:43:57;4.40;99.90
30973;DHT22;25423;45.624;13.790;2023-02-28T00:46:23;4.40;99.90
30973;DHT22;25423;45.624;13.790;2023-02-28T00:48:49;4.40;99.90
30973;DHT22;25423;45.624;13.790;2023-02-28T00:51:14;4.40;99.90
30973;DHT22;25423;45.624;13.790;2023-02-28T00:53:40;4.40;99.90
30973;DHT22;25423;45.624;13.790;2023-02-28T00:56:06;4.30;99.90
30973;DHT22;25423;45.624;13.790;2023-02-28T00:58:32;4.30;99.90
30973;DHT22;25423;45.624;13.790;2023-02-28T01:00:57;4.40;99.90
30973;DHT22;25423;45.624;13.790;2023-02-28T01:03:23;4.40;99.90
30973;DHT22;25423;45.624;13.790;2023-02-28T01:05:49;4.40;99.90
30973;DHT22;25423;45.624;13.790;2023-02-28T01:08:15;4.40;99.90
30973;DHT22;25423;45.624;13.790;2023-02-28T01:10:40;4.40;99.90
30973;DHT22;25423;45.624;13.790;2023-02-28T01:13:06;4.50;99.90
30973;DHT22;25423;45.624;13.790;2023-02-28T01:15:32;4.50;99.90
30973;DHT22;25423;45.624;13.790;2023-02-28T01:17:58;4.50;99.90
30973;DHT22;25423;45.624;13.790;2023-02-28T01:20:24;4.50;99.90
30973;DHT22;25423;45.624;13.790;2023-02-28T01:22:50;4.40;99.90
30973;DHT22;25423;45.624;13.790;2023-02-28T01:25:15;4.40;99.90
30973;DHT22;25423;45.624;13.790;2023-02-28T01:27:41;4.40;99.90
30973;DHT22;25423;45.624;13.790;2023-02-28T01:30:07;4.40;99.90
30973;DHT22;25423;45.624;13.790;2023-02-28T01:32:33;4.50;99.90
30973;DHT22;25423;45.624;13.790;2023-02-28T01:34:59;4.40;99.90
30973;DHT22;25423;45.624;13.790;2023-02-28T01:37:24;4.50;99.90
30973;DHT22;25423;45.624;13.790;2023-02-28T01:39:50;4.40;99.90
30973;DHT22;25423;45.624;13.790;2023-02-28T01:42:16;4.40;99.90
30973;DHT22;25423;45.624;13.790;2023-02-28T01:45:02;4.40;99.90
30973;DHT22;25423;45.624;13.790;2023-02-28T01:47:30;4.50;99.90
30973;DHT22;25423;45.624;13.790;2023-02-28T01:49:57;4.50;99.90
30973;DHT22;25423;45.624;13.790;2023-02-28T01:52:23;4.50;99.90
30973;DHT22;25423;45.624;13.790;2023-02-28T01:54:54;4.50;99.90
30973;DHT22;25423;45.624;13.790;2023-02-28T01:57:25;4.50;99.90
30973;DHT22;25423;45.624;13.790;2023-02-28T01:59:59;4.50;99.90
30973;DHT22;25423;45.624;13.790;2023-02-28T02:02:29;4.50;99.90
30973;DHT22;25423;45.624;13.790;2023-02-28T02:05:04;4.50;99.90
30973;DHT22;25423;45.624;13.790;2023-02-28T02:07:37;4.40;99.90
30973;DHT22;25423;45.624;13.790;2023-02-28T02:15:06;4.60;99.90
30973;DHT22;25423;45.624;13.790;2023-02-28T02:17:38;4.60;99.90
30973;DHT22;25423;45.624;13.790;2023-02-28T02:36:19;4.60;99.90
30973;DHT22;25423;45.624;13.790;2023-02-28T02:41:14;4.70;99.90
30973;DHT22;25423;45.624;13.790;2023-02-28T02:43:53;4.70;99.90
30973;DHT22;25423;45.624;13.790;2023-02-28T02:46:24;4.60;99.90
30973;DHT22;25423;45.624;13.790;2023-02-28T02:48:51;4.70;99.90
30973;DHT22;25423;45.624;13.790;2023-02-28T02:51:18;4.70;99.90
30973;DHT22;25423;45.624;13.790;2023-02-28T02:53:47;4.70;99.90
30973;DHT22;25423;45.624;13.790;2023-02-28T02:56:15;4.70;99.90
30973;DHT22;25423;45.624;13.790;2023-02-28T02:58:42;4.70;99.90
30973;DHT22;25423;45.624;13.790;2023-02-28T03:01:12;4.60;99.90
30973;DHT22;25423;45.624;13.790;2023-02-28T03:03:39;4.60;99.90
30973;DHT22;25423;45.624;13.790;2023-02-28T03:06:05;4.60;99.90
30973;DHT22;25423;45.624;13.790;2023-02-28T03:08:35;4.70;99.90
30973;DHT22;25423;45.624;13.790;2023-02-28T03:11:02;4.70;99.90
30973;DHT22;25423;45.624;13.790;2023-02-28T03:19:12;4.60;99.90
30973;DHT22;25423;45.624;13.790;2023-02-28T03:21:52;4.60;99.90
30973;DHT22;25423;45.624;13.790;2023-02-28T03:26:58;4.60;99.90
30973;DHT22;25423;45.624;13.790;2023-02-28T03:29:46;4.70;99.90
30973;DHT22;25423;45.624;13.790;2023-02-28T03:32:29;4.70;99.90
30973;DHT22;25423;45.624;13.790;2023-02-28T03:37:24;4.70;99.90
30973;DHT22;25423;45.624;13.790;2023-02-28T03:39:55;4.70;99.90
30973;DHT22;25423;45.624;13.790;2023-02-28T03:42:22;4.60;99.90
30973;DHT22;25423;45.624;13.790;2023-02-28T03:44:57;4.50;99.90
30973;DHT22;25423;45.624;13.790;2023-02-28T03:50:03;4.40;99.90
30973;DHT22;25423;45.624;13.790;2023-02-28T03:52:31;4.40;99.90
30973;DHT22;25423;45.624;13.790;2023-02-28T03:55:05;4.50;99.90
30973;DHT22;25423;45.624;13.790;2023-02-28T03:57:35;4.50;99.90
30973;DHT22;25423;45.624;13.790;2023-02-28T04:00:07;4.50;99.90
30973;DHT22;25423;45.624;13.790;2023-02-28T04:02:34;4.50;99.90
30973;DHT22;25423;45.624;13.790;2023-02-28T04:05:00;4.50;99.90
30973;DHT22;25423;45.624;13.790;2023-02-28T04:07:28;4.50;99.90
30973;DHT22;25423;45.624;13.790;2023-02-28T04:09:54;4.50;99.90
30973;DHT22;25423;45.624;13.790;2023-02-28T04:12:20;4.50;99.90
30973;DHT22;25423;45.624;13.790;2023-02-28T04:14:48;4.50;99.90
30973;DHT22;25423;45.624;13.790;2023-02-28T04:17:14;4.50;99.90
30973;DHT22;25423;45.624;13.790;2023-02-28T04:19:39;4.60;99.90
30973;DHT22;25423;45.624;13.790;2023-02-28T04:22:05;4.50;99.90
30973;DHT22;25423;45.624;13.790;2023-02-28T04:24:31;4.50;99.90
30973;DHT22;25423;45.624;13.790;2023-02-28T04:26:57;4.50;99.90
30973;DHT22;25423;45.624;13.790;2023-02-28T04:29:24;4.50;99.90
30973;DHT22;25423;45.624;13.790;2023-02-28T04:31:52;4.50;99.90
30973;DHT22;25423;45.624;13.790;2023-02-28T04:34:23;4.50;99.90
30973;DHT22;25423;45.624;13.790;2023-02-28T04:36:48;4.50;99.90
30973;DHT22;25423;45.624;13.790;2023-02-28T04:39:19;4.60;99.90
30973;DHT22;25423;45.624;13.790;2023-02-28T04:41:45;4.50;99.90
30973;DHT22;25423;45.624;13.790;2023-02-28T04:44:11;4.50;99.90
30973;DHT22;25423;45.624;13.790;2023-02-28T04:46:36;4.60;99.90
30973;DHT22;25423;45.624;13.790;2023-02-28T04:49:02;4.60;99.90
30973;DHT22;25423;45.624;13.790;2023-02-28T04:51:28;4.60;99.90
30973;DHT22;25423;45.624;13.790;2023-02-28T04:53:53;4.60;99.90
30973;DHT22;25423;45.624;13.790;2023-02-28T04:56:19;4.60;99.90
30973;DHT22;25423;45.624;13.790;2023-02-28T04:58:45;4.60;99.90
30973;DHT22;25423;45.624;13.790;2023-02-28T05:01:18;4.60;99.90
30973;DHT22;25423;45.624;13.790;2023-02-28T05:03:44;4.60;99.90
30973;DHT22;25423;45.624;13.790;2023-02-28T05:06:10;4.50;99.90
30973;DHT22;25423;45.624;13.790;2023-02-28T05:08:36;4.50;99.90
30973;DHT22;25423;45.624;13.790;2023-02-28T05:11:02;4.50;99.90
30973;DHT22;25423;45.624;13.790;2023-02-28T05:13:27;4.50;99.90
30973;DHT22;25423;45.624;13.790;2023-02-28T05:15:53;4.50;99.90
30973;DHT22;25423;45.624;13.790;2023-02-28T05:18:19;4.50;99.90
30973;DHT22;25423;45.624;13.790;2023-02-28T05:20:44;4.50;99.90
30973;DHT22;25423;45.624;13.790;2023-02-28T05:23:14;4.50;99.90
30973;DHT22;25423;45.624;13.790;2023-02-28T05:25:40;4.60;99.90
30973;DHT22;25423;45.624;13.790;2023-02-28T05:28:06;4.50;99.90
30973;DHT22;25423;45.624;13.790;2023-02-28T05:30:31;4.50;99.90
30973;DHT22;25423;45.624;13.790;2023-02-28T05:32:57;4.40;99.90
30973;DHT22;25423;45.624;13.790;2023-02-28T05:35:23;4.40;99.90
30973;DHT22;25423;45.624;13.790;2023-02-28T05:37:49;4.40;99.90
30973;DHT22;25423;45.624;13.790;2023-02-28T05:40:15;4.40;99.90
30973;DHT22;25423;45.624;13.790;2023-02-28T05:42:41;4.40;99.90
30973;DHT22;25423;45.624;13.790;2023-02-28T05:45:07;4.50;99.90
30973;DHT22;25423;45.624;13.790;2023-02-28T05:47:33;4.50;99.90
30973;DHT22;25423;45.624;13.790;2023-02-28T05:49:59;4.50;99.90
30973;DHT22;25423;45.624;13.790;2023-02-28T05:52:25;4.50;99.90
30973;DHT22;25423;45.624;13.790;2023-02-28T05:54:51;4.60;99.90
30973;DHT22;25423;45.624;13.790;2023-02-28T05:57:17;4.60;99.90
30973;DHT22;25423;45.624;13.790;2023-02-28T05:59:42;4.60;99.90
30973;DHT22;25423;45.624;13.790;2023-02-28T06:02:16;4.50;99.90
30973;DHT22;25423;45.624;13.790;2023-02-28T06:04:42;4.50;99.90
30973;DHT22;25423;45.624;13.790;2023-02-28T06:07:08;4.60;99.90
30973;DHT22;25423;45.624;13.790;2023-02-28T06:09:34;4.60;99.90
30973;DHT22;25423;45.624;13.790;2023-02-28T06:12:00;4.60;99.90
30973;DHT22;25423;45.624;13.790;2023-02-28T06:14:28;4.70;99.90
30973;DHT22;25423;45.624;13.790;2023-02-28T06:16:56;4.70;99.90
30973;DHT22;25423;45.624;13.790;2023-02-28T06:19:22;4.70;99.90
30973;DHT22;25423;45.624;13.790;2023-02-28T06:21:49;4.70;99.90
30973;DHT22;25423;45.624;13.790;2023-02-28T06:24:16;4.70;99.90
30973;DHT22;25423;45.624;13.790;2023-02-28T06:26:41;4.70;99.90
30973;DHT22;25423;45.624;13.790;2023-02-28T06:29:07;4.70;99.90
30973;DHT22;25423;45.624;13.790;2023-02-28T06:31:32;4.70;99.90
30973;DHT22;25423;45.624;13.790;2023-02-28T06:33:58;4.70;99.90
30973;DHT22;25423;45.624;13.790;2023-02-28T06:36:24;4.70;99.90
30973;DHT22;25423;45.624;13.790;2023-02-28T06:38:49;4.80;99.90
30973;DHT22;25423;45.624;13.790;2023-02-28T06:41:21;4.80;99.90
30973;DHT22;25423;45.624;13.790;2023-02-28T06:43:46;4.80;99.90
30973;DHT22;25423;45.624;13.790;2023-02-28T06:46:13;4.90;99.90
30973;DHT22;25423;45.624;13.790;2023-02-28T06:48:39;4.80;99.90
30973;DHT22;25423;45.624;13.790;2023-02-28T06:51:06;4.80;99.90
30973;DHT22;25423;45.624;13.790;2023-02-28T06:53:32;4.80;99.90
30973;DHT22;25423;45.624;13.790;2023-02-28T06:55:58;4.90;99.90
30973;DHT22;25423;45.624;13.790;2023-02-28T06:58:23;4.90;99.90
30973;DHT22;25423;45.624;13.790;2023-02-28T07:00:52;4.90;99.90
30973;DHT22;25423;45.624;13.790;2023-02-28T07:03:18;5.00;99.90
30973;DHT22;25423;45.624;13.790;2023-02-28T07:05:44;5.00;99.90
30973;DHT22;25423;45.624;13.790;2023-02-28T07:08:10;4.90;99.90
30973;DHT22;25423;45.624;13.790;2023-02-28T07:10:38;4.90;99.90
30973;DHT22;25423;45.624;13.790;2023-02-28T07:13:05;5.00;99.90
30973;DHT22;25423;45.624;13.790;2023-02-28T07:15:31;5.00;99.90
30973;DHT22;25423;45.624;13.790;2023-02-28T07:17:56;5.00;99.90
30973;DHT22;25423;45.624;13.790;2023-02-28T07:20:22;5.00;99.90
30973;DHT22;25423;45.624;13.790;2023-02-28T07:22:49;5.00;99.90
30973;DHT22;25423;45.624;13.790;2023-02-28T07:25:21;5.10;99.90
30973;DHT22;25423;45.624;13.790;2023-02-28T07:27:46;5.10;99.90
30973;DHT22;25423;45.624;13.790;2023-02-28T07:30:15;5.20;99.90
30973;DHT22;25423;45.624;13.790;2023-02-28T07:32:40;5.20;99.90
30973;DHT22;25423;45.624;13.790;2023-02-28T07:35:06;5.20;99.90
30973;DHT22;25423;45.624;13.790;2023-02-28T07:37:32;5.20;99.90
30973;DHT22;25423;45.624;13.790;2023-02-28T07:40:05;5.20;99.90
30973;DHT22;25423;45.624;13.790;2023-02-28T07:42:34;5.20;99.90
30973;DHT22;25423;45.624;13.790;2023-02-28T07:44:59;5.20;99.90
30973;DHT22;25423;45.624;13.790;2023-02-28T07:47:25;5.30;99.90
30973;DHT22;25423;45.624;13.790;2023-02-28T07:49:51;5.20;99.90
30973;DHT22;25423;45.624;13.790;2023-02-28T07:52:16;5.30;99.90
30973;DHT22;25423;45.624;13.790;2023-02-28T07:54:42;5.40;99.90
30973;DHT22;25423;45.624;13.790;2023-02-28T07:57:08;5.30;99.90
30973;DHT22;25423;45.624;13.790;2023-02-28T07:59:33;5.40;99.90
30973;DHT22;25423;45.624;13.790;2023-02-28T08:01:59;5.30;99.90
30973;DHT22;25423;45.624;13.790;2023-02-28T08:04:25;5.40;99.90
30973;DHT22;25423;45.624;13.790;2023-02-28T08:06:50;5.50;99.90
30973;DHT22;25423;45.624;13.790;2023-02-28T08:09:19;5.40;99.90
30973;DHT22;25423;45.624;13.790;2023-02-28T08:11:44;5.40;99.90
30973;DHT22;25423;45.624;13.790;2023-02-28T08:14:10;5.30;99.90
30973;DHT22;25423;45.624;13.790;2023-02-28T08:16:36;5.40;99.90
30973;DHT22;25423;45.624;13.790;2023-02-28T08:19:02;5.40;99.90
30973;DHT22;25423;45.624;13.790;2023-02-28T08:21:27;5.50;99.90
30973;DHT22;25423;45.624;13.790;2023-02-28T08:23:53;5.50;99.90
30973;DHT22;25423;45.624;13.790;2023-02-28T08:26:19;5.50;99.90
30973;DHT22;25423;45.624;13.790;2023-02-28T08:28:45;5.50;99.90
30973;DHT22;25423;45.624;13.790;2023-02-28T08:31:12;5.50;99.90
30973;DHT22;25423;45.624;13.790;2023-02-28T08:33:39;5.50;99.90
30973;DHT22;25423;45.624;13.790;2023-02-28T08:36:05;5.70;99.90
30973;DHT22;25423;45.624;13.790;2023-02-28T08:38:33;5.80;99.90
30973;DHT22;25423;45.624;13.790;2023-02-28T08:41:00;5.80;99.90
30973;DHT22;25423;45.624;13.790;2023-02-28T08:43:26;5.80;99.90
30973;DHT22;25423;45.624;13.790;2023-02-28T08:45:52;5.80;99.90
30973;DHT22;25423;45.624;13.790;2023-02-28T08:48:18;5.80;99.90
30973;DHT22;25423;45.624;13.790;2023-02-28T08:50:44;5.80;99.90
30973;DHT22;25423;45.624;13.790;2023-02-28T08:53:09;5.90;99.90
30973;DHT22;25423;45.624;13.790;2023-02-28T08:55:35;5.90;99.90
30973;DHT22;25423;45.624;13.790;2023-02-28T08:58:01;5.90;99.90
30973;DHT22;25423;45.624;13.790;2023-02-28T09:00:26;5.90;99.90
30973;DHT22;25423;45.624;13.790;2023-02-28T09:02:52;6.00;99.90
30973;DHT22;25423;45.624;13.790;2023-02-28T09:05:18;6.00;99.90
30973;DHT22;25423;45.624;13.790;2023-02-28T09:07:43;6.00;99.90
30973;DHT22;25423;45.624;13.790;2023-02-28T09:10:09;5.90;99.90
30973;DHT22;25423;45.624;13.790;2023-02-28T09:12:35;5.90;99.90
30973;DHT22;25423;45.624;13.790;2023-02-28T09:15:01;6.00;99.90
30973;DHT22;25423;45.624;13.790;2023-02-28T09:17:27;6.10;99.90
30973;DHT22;25423;45.624;13.790;2023-02-28T09:19:53;6.10;99.90
30973;DHT22;25423;45.624;13.790;2023-02-28T09:22:18;6.10;99.90
30973;DHT22;25423;45.624;13.790;2023-02-28T09:24:44;6.10;99.90
30973;DHT22;25423;45.624;13.790;2023-02-28T09:27:10;6.20;99.90
30973;DHT22;25423;45.624;13.790;2023-02-28T09:29:36;6.20;99.90
30973;DHT22;25423;45.624;13.790;2023-02-28T09:32:02;6.20;99.90
30973;DHT22;25423;45.624;13.790;2023-02-28T09:34:31;6.30;99.90
30973;DHT22;25423;45.624;13.790;2023-02-28T09:36:56;6.30;99.90
30973;DHT22;25423;45.624;13.790;2023-02-28T09:39:22;6.30;99.90
30973;DHT22;25423;45.624;13.790;2023-02-28T09:41:51;6.40;99.90
30973;DHT22;25423;45.624;13.790;2023-02-28T09:46:47;6.70;99.90
30973;DHT22;25423;45.624;13.790;2023-02-28T09:49:14;7.00;99.90
30973;DHT22;25423;45.624;13.790;2023-02-28T09:54:10;7.40;99.90
30973;DHT22;25423;45.624;13.790;2023-02-28T09:56:41;7.50;99.90
30973;DHT22;25423;45.624;13.790;2023-02-28T10:06:51;7.80;99.90
30973;DHT22;25423;45.624;13.790;2023-02-28T10:09:25;7.90;99.90
30973;DHT22;25423;45.624;13.790;2023-02-28T10:11:52;8.00;99.90
30973;DHT22;25423;45.624;13.790;2023-02-28T10:14:21;8.10;99.90
30973;DHT22;25423;45.624;13.790;2023-02-28T10:16:54;8.00;99.90
30973;DHT22;25423;45.624;13.790;2023-02-28T10:19:26;7.90;99.90
30973;DHT22;25423;45.624;13.790;2023-02-28T10:24:45;7.80;99.90
30973;DHT22;25423;45.624;13.790;2023-02-28T10:29:37;7.80;99.90
30973;DHT22;25423;45.624;13.790;2023-02-28T10:32:05;7.90;99.90
30973;DHT22;25423;45.624;13.790;2023-02-28T10:34:31;7.90;99.90
30973;DHT22;25423;45.624;13.790;2023-02-28T10:36:57;7.80;99.90
30973;DHT22;25423;45.624;13.790;2023-02-28T10:42:04;7.60;99.90
30973;DHT22;25423;45.624;13.790;2023-02-28T10:44:29;7.50;99.90
30973;DHT22;25423;45.624;13.790;2023-02-28T10:46:55;7.40;99.90
30973;DHT22;25423;45.624;13.790;2023-02-28T10:49:23;7.40;99.90
30973;DHT22;25423;45.624;13.790;2023-02-28T10:51:50;7.30;99.90
30973;DHT22;25423;45.624;13.790;2023-02-28T10:54:26;7.30;99.90
30973;DHT22;25423;45.624;13.790;2023-02-28T10:59:37;7.30;99.90
30973;DHT22;25423;45.624;13.790;2023-02-28T11:02:07;7.30;99.90
30973;DHT22;25423;45.624;13.790;2023-02-28T11:04:48;7.20;99.90
30973;DHT22;25423;45.624;13.790;2023-02-28T11:07:17;7.20;99.90
30973;DHT22;25423;45.624;13.790;2023-02-28T11:09:48;7.20;99.90
30973;DHT22;25423;45.624;13.790;2023-02-28T11:14:47;7.20;99.90
30973;DHT22;25423;45.624;13.790;2023-02-28T11:17:21;7.20;99.90
30973;DHT22;25423;45.624;13.790;2023-02-28T11:19:47;7.30;99.90
30973;DHT22;25423;45.624;13.790;2023-02-28T11:22:19;7.30;99.90
30973;DHT22;25423;45.624;13.790;2023-02-28T11:24:47;7.30;99.90
30973;DHT22;25423;45.624;13.790;2023-02-28T11:29:54;7.20;99.90
30973;DHT22;25423;45.624;13.790;2023-02-28T11:32:21;7.10;99.90
30973;DHT22;25423;45.624;13.790;2023-02-28T11:35:00;7.10;99.90
30973;DHT22;25423;45.624;13.790;2023-02-28T11:37:27;7.20;99.90
30973;DHT22;25423;45.624;13.790;2023-02-28T11:39:53;7.30;99.90
30973;DHT22;25423;45.624;13.790;2023-02-28T11:42:36;7.30;99.90
30973;DHT22;25423;45.624;13.790;2023-02-28T11:53:21;7.30;99.90
30973;DHT22;25423;45.624;13.790;2023-02-28T11:55:57;7.20;99.90
30973;DHT22;25423;45.624;13.790;2023-02-28T11:58:44;7.30;99.90
30973;DHT22;25423;45.624;13.790;2023-02-28T12:01:17;7.30;99.90
30973;DHT22;25423;45.624;13.790;2023-02-28T12:06:34;7.30;99.90
30973;DHT22;25423;45.624;13.790;2023-02-28T12:16:53;7.50;99.90
30973;DHT22;25423;45.624;13.790;2023-02-28T12:19:25;7.50;99.90
30973;DHT22;25423;45.624;13.790;2023-02-28T12:22:03;7.50;99.90
30973;DHT22;25423;45.624;13.790;2023-02-28T12:24:45;7.50;99.90
30973;DHT22;25423;45.624;13.790;2023-02-28T12:27:14;7.50;99.90
30973;DHT22;25423;45.624;13.790;2023-02-28T12:29:49;7.50;99.90
30973;DHT22;25423;45.624;13.790;2023-02-28T12:34:44;7.40;99.90
30973;DHT22;25423;45.624;13.790;2023-02-28T12:37:14;7.50;99.90
30973;DHT22;25423;45.624;13.790;2023-02-28T12:39:44;7.60;99.90
30973;DHT22;25423;45.624;13.790;2023-02-28T12:42:17;7.50;99.90
30973;DHT22;25423;45.624;13.790;2023-02-28T12:44:46;7.60;99.90
30973;DHT22;25423;45.624;13.790;2023-02-28T12:47:17;7.60;99.90
30973;DHT22;25423;45.624;13.790;2023-02-28T12:49:50;7.60;99.90
30973;DHT22;25423;45.624;13.790;2023-02-28T12:52:18;7.60;99.90
30973;DHT22;25423;45.624;13.790;2023-02-28T12:54:47;7.50;99.90
30973;DHT22;25423;45.624;13.790;2023-02-28T12:57:18;7.60;99.90
30973;DHT22;25423;45.624;13.790;2023-02-28T12:59:49;7.50;99.90
30973;DHT22;25423;45.624;13.790;2023-02-28T13:02:19;7.50;99.90
30973;DHT22;25423;45.624;13.790;2023-02-28T13:09:38;7.50;99.90
30973;DHT22;25423;45.624;13.790;2023-02-28T13:12:12;7.60;99.90
30973;DHT22;25423;45.624;13.790;2023-02-28T13:14:38;7.50;99.90
30973;DHT22;25423;45.624;13.790;2023-02-28T13:19:35;7.30;99.90
30973;DHT22;25423;45.624;13.790;2023-02-28T13:22:01;7.20;99.90
30973;DHT22;25423;45.624;13.790;2023-02-28T13:29:35;7.10;99.90
30973;DHT22;25423;45.624;13.790;2023-02-28T13:47:30;7.20;99.90
30973;DHT22;25423;45.624;13.790;2023-02-28T13:50:20;7.20;99.90
30973;DHT22;25423;45.624;13.790;2023-02-28T14:11:34;7.40;99.90
30973;DHT22;25423;45.624;13.790;2023-02-28T14:14:01;7.50;99.90
30973;DHT22;25423;45.624;13.790;2023-02-28T14:16:28;7.50;99.90
30973;DHT22;25423;45.624;13.790;2023-02-28T14:19:01;7.50;99.90
30973;DHT22;25423;45.624;13.790;2023-02-28T14:21:29;7.50;99.90
30973;DHT22;25423;45.624;13.790;2023-02-28T14:26:33;7.50;99.90
30973;DHT22;25423;45.624;13.790;2023-02-28T14:31:29;7.60;99.90
30973;DHT22;25423;45.624;13.790;2023-02-28T14:34:17;7.60;99.90
30973;DHT22;25423;45.624;13.790;2023-02-28T14:36:47;7.50;99.90
30973;DHT22;25423;45.624;13.790;2023-02-28T14:39:14;7.50;99.90
30973;DHT22;25423;45.624;13.790;2023-02-28T14:41:41;7.60;99.90
30973;DHT22;25423;45.624;13.790;2023-02-28T14:46:45;7.50;99.90
30973;DHT22;25423;45.624;13.790;2023-02-28T14:51:43;7.50;99.90
30973;DHT22;25423;45.624;13.790;2023-02-28T14:54:12;7.40;99.90
30973;DHT22;25423;45.624;13.790;2023-02-28T14:56:38;7.30;99.90
30973;DHT22;25423;45.624;13.790;2023-02-28T14:59:05;7.30;99.90
30973;DHT22;25423;45.624;13.790;2023-02-28T15:01:46;7.30;99.90
30973;DHT22;25423;45.624;13.790;2023-02-28T15:04:16;7.30;99.90
30973;DHT22;25423;45.624;13.790;2023-02-28T15:06:46;7.30;99.90
30973;DHT22;25423;45.624;13.790;2023-02-28T15:09:17;7.40;99.90
30973;DHT22;25423;45.624;13.790;2023-02-28T15:11:49;7.40;99.90
30973;DHT22;25423;45.624;13.790;2023-02-28T15:14:17;7.40;99.90
30973;DHT22;25423;45.624;13.790;2023-02-28T15:16:44;7.50;99.90
30973;DHT22;25423;45.624;13.790;2023-02-28T15:19:19;7.60;99.90
30973;DHT22;25423;45.624;13.790;2023-02-28T15:21:47;7.50;99.90
30973;DHT22;25423;45.624;13.790;2023-02-28T15:24:15;7.50;99.90
30973;DHT22;25423;45.624;13.790;2023-02-28T15:26:52;7.50;99.90
30973;DHT22;25423;45.624;13.790;2023-02-28T15:29:23;7.50;99.90
30973;DHT22;25423;45.624;13.790;2023-02-28T15:31:50;7.40;99.90
30973;DHT22;25423;45.624;13.790;2023-02-28T15:34:20;7.30;99.90
30973;DHT22;25423;45.624;13.790;2023-02-28T15:36:47;7.20;99.90
30973;DHT22;25423;45.624;13.790;2023-02-28T15:39:20;7.10;99.90
30973;DHT22;25423;45.624;13.790;2023-02-28T15:41:46;7.00;99.90
30973;DHT22;25423;45.624;13.790;2023-02-28T15:44:26;7.00;99.90
30973;DHT22;25423;45.624;13.790;2023-02-28T15:49:21;7.00;99.90
30973;DHT22;25423;45.624;13.790;2023-02-28T15:51:48;6.90;99.90
30973;DHT22;25423;45.624;13.790;2023-02-28T15:54:15;6.90;99.90
30973;DHT22;25423;45.624;13.790;2023-02-28T15:56:44;6.90;99.90
30973;DHT22;25423;45.624;13.790;2023-02-28T15:59:17;6.90;99.90
30973;DHT22;25423;45.624;13.790;2023-02-28T16:01:43;6.80;99.90
30973;DHT22;25423;45.624;13.790;2023-02-28T16:04:16;6.70;99.90
30973;DHT22;25423;45.624;13.790;2023-02-28T16:06:43;6.60;99.90
30973;DHT22;25423;45.624;13.790;2023-02-28T16:09:13;6.60;99.90
30973;DHT22;25423;45.624;13.790;2023-02-28T16:11:46;6.60;99.90
30973;DHT22;25423;45.624;13.790;2023-02-28T16:14:17;6.50;99.90
30973;DHT22;25423;45.624;13.790;2023-02-28T16:16:44;6.50;99.90
30973;DHT22;25423;45.624;13.790;2023-02-28T16:19:10;6.30;99.90
30973;DHT22;25423;45.624;13.790;2023-02-28T16:21:36;6.30;99.90
30973;DHT22;25423;45.624;13.790;2023-02-28T16:24:01;6.30;99.90
30973;DHT22;25423;45.624;13.790;2023-02-28T16:26:27;6.20;99.90
30973;DHT22;25423;45.624;13.790;2023-02-28T16:28:53;6.20;99.90
30973;DHT22;25423;45.624;13.790;2023-02-28T16:31:19;6.20;99.90
30973;DHT22;25423;45.624;13.790;2023-02-28T16:33:45;6.20;99.90
30973;DHT22;25423;45.624;13.790;2023-02-28T16:36:18;6.30;99.90
30973;DHT22;25423;45.624;13.790;2023-02-28T16:38:45;6.10;99.90
30973;DHT22;25423;45.624;13.790;2023-02-28T16:41:16;6.10;99.90
30973;DHT22;25423;45.624;13.790;2023-02-28T16:43:45;6.00;99.90
30973;DHT22;25423;45.624;13.790;2023-02-28T16:46:11;5.90;99.90
30973;DHT22;25423;45.624;13.790;2023-02-28T16:48:37;5.80;99.90
30973;DHT22;25423;45.624;13.790;2023-02-28T16:51:03;5.80;99.90
30973;DHT22;25423;45.624;13.790;2023-02-28T16:53:29;5.80;99.90
30973;DHT22;25423;45.624;13.790;2023-02-28T16:55:55;5.80;99.90
30973;DHT22;25423;45.624;13.790;2023-02-28T16:58:21;5.80;99.90
30973;DHT22;25423;45.624;13.790;2023-02-28T17:00:50;5.80;99.90
30973;DHT22;25423;45.624;13.790;2023-02-28T17:03:22;5.70;99.90
30973;DHT22;25423;45.624;13.790;2023-02-28T17:05:48;5.70;99.90
30973;DHT22;25423;45.624;13.790;2023-02-28T17:08:14;5.80;99.90
30973;DHT22;25423;45.624;13.790;2023-02-28T17:10:40;5.70;99.90
30973;DHT22;25423;45.624;13.790;2023-02-28T17:13:05;5.70;99.90
30973;DHT22;25423;45.624;13.790;2023-02-28T17:15:33;5.70;99.90
30973;DHT22;25423;45.624;13.790;2023-02-28T17:17:58;5.70;99.90
30973;DHT22;25423;45.624;13.790;2023-02-28T17:20:24;5.70;99.90
30973;DHT22;25423;45.624;13.790;2023-02-28T17:22:52;5.70;99.90
30973;DHT22;25423;45.624;13.790;2023-02-28T17:25:18;5.70;99.90
30973;DHT22;25423;45.624;13.790;2023-02-28T17:27:43;5.70;99.90
30973;DHT22;25423;45.624;13.790;2023-02-28T17:30:19;5.70;99.90
30973;DHT22;25423;45.624;13.790;2023-02-28T17:32:45;5.70;99.90
30973;DHT22;25423;45.624;13.790;2023-02-28T17:35:11;5.80;99.90
30973;DHT22;25423;45.624;13.790;2023-02-28T17:37:37;5.70;99.90
30973;DHT22;25423;45.624;13.790;2023-02-28T17:40:03;5.70;99.90
30973;DHT22;25423;45.624;13.790;2023-02-28T17:42:29;5.70;99.90
30973;DHT22;25423;45.624;13.790;2023-02-28T17:44:54;5.80;99.90
30973;DHT22;25423;45.624;13.790;2023-02-28T17:47:20;5.70;99.90
30973;DHT22;25423;45.624;13.790;2023-02-28T17:49:46;5.70;99.90
30973;DHT22;25423;45.624;13.790;2023-02-28T17:52:11;5.70;99.90
30973;DHT22;25423;45.624;13.790;2023-02-28T17:54:37;5.70;99.90
30973;DHT22;25423;45.624;13.790;2023-02-28T17:57:03;5.70;99.90
30973;DHT22;25423;45.624;13.790;2023-02-28T17:59:29;5.70;99.90